sensor_id;sensor_type;location;lat;lon;timestamp;P1;durP1;ratioP1;P2;durP2;ratioP2
19605;SDS011;9950;50.168;8.210;2022-10-16T00:00:50;5.47;;;2.83;;
19605;SDS011;9950;50.168;8.210;2022-10-16T00:03:17;7.25;;;2.88;;
19605;SDS011;9950;50.168;8.210;2022-10-16T00:05:45;6.78;;;3.15;;
19605;SDS011;9950;50.168;8.210;2022-10-16T00:08:12;3.50;;;3.13;;
19605;SDS011;9950;50.168;8.210;2022-10-16T00:10:39;3.72;;;3.25;;
19605;SDS011;9950;50.168;8.210;2022-10-16T00:13:07;5.28;;;3.30;;
19605;SDS011;9950;50.168;8.210;2022-10-16T00:15:36;5.55;;;2.80;;
19605;SDS011;9950;50.168;8.210;2022-10-16T00:18:04;6.65;;;2.95;;
19605;SDS011;9950;50.168;8.210;2022-10-16T00:20:33;4.28;;;3.33;;
19605;SDS011;9950;50.168;8.210;2022-10-16T00:23:01;8.15;;;4.38;;
19605;SDS011;9950;50.168;8.210;2022-10-16T00:25:29;6.07;;;3.92;;
19605;SDS011;9950;50.168;8.210;2022-10-16T00:27:57;12.35;;;5.38;;
19605;SDS011;9950;50.168;8.210;2022-10-16T00:30:25;6.63;;;4.82;;
19605;SDS011;9950;50.168;8.210;2022-10-16T00:32:55;6.93;;;4.80;;
19605;SDS011;9950;50.168;8.210;2022-10-16T00:35:22;9.25;;;4.13;;
19605;SDS011;9950;50.168;8.210;2022-10-16T00:37:49;6.10;;;4.30;;
19605;SDS011;9950;50.168;8.210;2022-10-16T00:40:17;6.03;;;4.63;;
19605;SDS011;9950;50.168;8.210;2022-10-16T00:42:44;7.35;;;4.80;;
19605;SDS011;9950;50.168;8.210;2022-10-16T00:45:11;9.77;;;4.80;;
19605;SDS011;9950;50.168;8.210;2022-10-16T00:47:39;5.13;;;4.57;;
19605;SDS011;9950;50.168;8.210;2022-10-16T00:50:09;5.40;;;4.40;;
19605;SDS011;9950;50.168;8.210;2022-10-16T00:52:37;5.60;;;4.22;;
19605;SDS011;9950;50.168;8.210;2022-10-16T00:55:06;5.03;;;3.97;;
19605;SDS011;9950;50.168;8.210;2022-10-16T00:57:33;6.63;;;4.00;;
19605;SDS011;9950;50.168;8.210;2022-10-16T01:00:01;7.65;;;3.67;;
19605;SDS011;9950;50.168;8.210;2022-10-16T01:02:28;7.97;;;4.40;;
19605;SDS011;9950;50.168;8.210;2022-10-16T01:04:55;5.07;;;3.58;;
19605;SDS011;9950;50.168;8.210;2022-10-16T01:07:30;4.40;;;3.45;;
19605;SDS011;9950;50.168;8.210;2022-10-16T01:10:03;6.22;;;3.50;;
19605;SDS011;9950;50.168;8.210;2022-10-16T01:12:34;4.80;;;2.97;;
19605;SDS011;9950;50.168;8.210;2022-10-16T01:15:04;3.67;;;3.15;;
19605;SDS011;9950;50.168;8.210;2022-10-16T01:17:35;4.25;;;2.60;;
19605;SDS011;9950;50.168;8.210;2022-10-16T01:20:07;4.43;;;3.20;;
19605;SDS011;9950;50.168;8.210;2022-10-16T01:22:39;5.43;;;3.10;;
19605;SDS011;9950;50.168;8.210;2022-10-16T01:25:09;3.20;;;2.90;;
19605;SDS011;9950;50.168;8.210;2022-10-16T01:27:40;5.95;;;2.90;;
19605;SDS011;9950;50.168;8.210;2022-10-16T01:30:10;4.13;;;2.60;;
19605;SDS011;9950;50.168;8.210;2022-10-16T01:32:40;3.55;;;2.58;;
19605;SDS011;9950;50.168;8.210;2022-10-16T01:35:09;2.83;;;2.63;;
19605;SDS011;9950;50.168;8.210;2022-10-16T01:37:39;5.28;;;2.50;;
19605;SDS011;9950;50.168;8.210;2022-10-16T01:40:09;2.35;;;2.15;;
19605;SDS011;9950;50.168;8.210;2022-10-16T01:42:37;3.30;;;2.60;;
19605;SDS011;9950;50.168;8.210;2022-10-16T01:45:07;3.53;;;2.72;;
19605;SDS011;9950;50.168;8.210;2022-10-16T01:47:36;3.10;;;2.80;;
19605;SDS011;9950;50.168;8.210;2022-10-16T01:50:04;4.50;;;3.08;;
19605;SDS011;9950;50.168;8.210;2022-10-16T01:52:33;5.10;;;2.67;;
19605;SDS011;9950;50.168;8.210;2022-10-16T01:55:02;3.42;;;2.97;;
19605;SDS011;9950;50.168;8.210;2022-10-16T01:57:30;4.75;;;3.00;;
19605;SDS011;9950;50.168;8.210;2022-10-16T02:00:01;6.22;;;2.72;;
19605;SDS011;9950;50.168;8.210;2022-10-16T02:02:30;4.45;;;2.78;;
19605;SDS011;9950;50.168;8.210;2022-10-16T02:04:58;3.03;;;2.75;;
19605;SDS011;9950;50.168;8.210;2022-10-16T02:07:25;3.20;;;2.67;;
19605;SDS011;9950;50.168;8.210;2022-10-16T02:09:52;6.35;;;3.33;;
19605;SDS011;9950;50.168;8.210;2022-10-16T02:12:22;4.30;;;3.50;;
19605;SDS011;9950;50.168;8.210;2022-10-16T02:14:50;5.85;;;4.10;;
19605;SDS011;9950;50.168;8.210;2022-10-16T02:17:18;5.28;;;4.13;;
19605;SDS011;9950;50.168;8.210;2022-10-16T02:19:47;4.70;;;3.80;;
19605;SDS011;9950;50.168;8.210;2022-10-16T02:22:15;6.03;;;3.88;;
19605;SDS011;9950;50.168;8.210;2022-10-16T02:24:45;4.20;;;3.80;;
19605;SDS011;9950;50.168;8.210;2022-10-16T02:27:17;4.40;;;3.80;;
19605;SDS011;9950;50.168;8.210;2022-10-16T02:29:45;5.65;;;3.88;;
19605;SDS011;9950;50.168;8.210;2022-10-16T02:32:15;9.38;;;4.20;;
19605;SDS011;9950;50.168;8.210;2022-10-16T02:34:43;5.85;;;3.95;;
19605;SDS011;9950;50.168;8.210;2022-10-16T02:37:13;5.55;;;4.18;;
19605;SDS011;9950;50.168;8.210;2022-10-16T02:39:40;6.07;;;3.72;;
19605;SDS011;9950;50.168;8.210;2022-10-16T02:42:09;5.47;;;3.58;;
19605;SDS011;9950;50.168;8.210;2022-10-16T02:44:36;4.70;;;3.78;;
19605;SDS011;9950;50.168;8.210;2022-10-16T02:47:03;5.25;;;4.22;;
19605;SDS011;9950;50.168;8.210;2022-10-16T02:49:31;4.32;;;3.92;;
19605;SDS011;9950;50.168;8.210;2022-10-16T02:51:58;6.68;;;4.00;;
19605;SDS011;9950;50.168;8.210;2022-10-16T02:54:26;4.90;;;4.40;;
19605;SDS011;9950;50.168;8.210;2022-10-16T02:56:53;4.35;;;3.95;;
19605;SDS011;9950;50.168;8.210;2022-10-16T02:59:21;5.82;;;4.05;;
19605;SDS011;9950;50.168;8.210;2022-10-16T03:01:48;5.30;;;3.95;;
19605;SDS011;9950;50.168;8.210;2022-10-16T03:04:15;4.32;;;3.90;;
19605;SDS011;9950;50.168;8.210;2022-10-16T03:06:42;4.10;;;3.70;;
19605;SDS011;9950;50.168;8.210;2022-10-16T03:09:09;4.68;;;3.80;;
19605;SDS011;9950;50.168;8.210;2022-10-16T03:11:38;4.10;;;3.65;;
19605;SDS011;9950;50.168;8.210;2022-10-16T03:14:05;5.75;;;3.90;;
19605;SDS011;9950;50.168;8.210;2022-10-16T03:16:32;4.22;;;3.80;;
19605;SDS011;9950;50.168;8.210;2022-10-16T03:18:59;6.07;;;4.03;;
19605;SDS011;9950;50.168;8.210;2022-10-16T03:21:27;4.47;;;3.70;;
19605;SDS011;9950;50.168;8.210;2022-10-16T03:23:54;7.18;;;3.53;;
19605;SDS011;9950;50.168;8.210;2022-10-16T03:26:21;3.47;;;2.70;;
19605;SDS011;9950;50.168;8.210;2022-10-16T03:28:50;5.93;;;2.72;;
19605;SDS011;9950;50.168;8.210;2022-10-16T03:31:17;3.38;;;3.08;;
19605;SDS011;9950;50.168;8.210;2022-10-16T03:33:44;4.03;;;2.80;;
19605;SDS011;9950;50.168;8.210;2022-10-16T03:36:11;9.23;;;2.97;;
19605;SDS011;9950;50.168;8.210;2022-10-16T03:38:38;4.20;;;2.95;;
19605;SDS011;9950;50.168;8.210;2022-10-16T03:41:05;5.93;;;3.33;;
19605;SDS011;9950;50.168;8.210;2022-10-16T03:43:33;3.70;;;3.30;;
19605;SDS011;9950;50.168;8.210;2022-10-16T03:46:04;7.32;;;4.05;;
19605;SDS011;9950;50.168;8.210;2022-10-16T03:48:31;5.63;;;3.60;;
19605;SDS011;9950;50.168;8.210;2022-10-16T03:51:00;6.68;;;3.40;;
19605;SDS011;9950;50.168;8.210;2022-10-16T03:53:27;5.70;;;3.20;;
19605;SDS011;9950;50.168;8.210;2022-10-16T03:55:55;3.08;;;2.80;;
19605;SDS011;9950;50.168;8.210;2022-10-16T03:58:22;4.53;;;3.00;;
19605;SDS011;9950;50.168;8.210;2022-10-16T04:00:49;3.42;;;3.13;;
19605;SDS011;9950;50.168;8.210;2022-10-16T04:03:17;5.03;;;3.10;;
19605;SDS011;9950;50.168;8.210;2022-10-16T04:05:44;3.83;;;2.78;;
19605;SDS011;9950;50.168;8.210;2022-10-16T04:08:11;5.15;;;2.92;;
19605;SDS011;9950;50.168;8.210;2022-10-16T04:10:39;4.38;;;3.20;;
19605;SDS011;9950;50.168;8.210;2022-10-16T04:13:06;5.47;;;3.00;;
19605;SDS011;9950;50.168;8.210;2022-10-16T04:15:33;4.32;;;2.97;;
19605;SDS011;9950;50.168;8.210;2022-10-16T04:18:00;5.38;;;2.80;;
19605;SDS011;9950;50.168;8.210;2022-10-16T04:20:28;5.40;;;2.95;;
19605;SDS011;9950;50.168;8.210;2022-10-16T04:22:56;5.55;;;3.13;;
19605;SDS011;9950;50.168;8.210;2022-10-16T04:25:23;5.43;;;2.90;;
19605;SDS011;9950;50.168;8.210;2022-10-16T04:27:52;8.48;;;2.80;;
19605;SDS011;9950;50.168;8.210;2022-10-16T04:30:19;3.70;;;2.90;;
19605;SDS011;9950;50.168;8.210;2022-10-16T04:32:47;6.80;;;2.83;;
19605;SDS011;9950;50.168;8.210;2022-10-16T04:35:15;4.05;;;2.83;;
19605;SDS011;9950;50.168;8.210;2022-10-16T04:37:43;3.83;;;3.03;;
19605;SDS011;9950;50.168;8.210;2022-10-16T04:40:10;7.07;;;3.13;;
19605;SDS011;9950;50.168;8.210;2022-10-16T04:42:38;3.42;;;2.75;;
19605;SDS011;9950;50.168;8.210;2022-10-16T04:45:06;3.45;;;2.72;;
19605;SDS011;9950;50.168;8.210;2022-10-16T04:47:33;5.18;;;3.30;;
19605;SDS011;9950;50.168;8.210;2022-10-16T04:50:01;3.58;;;2.90;;
19605;SDS011;9950;50.168;8.210;2022-10-16T04:52:28;8.23;;;3.28;;
19605;SDS011;9950;50.168;8.210;2022-10-16T04:54:57;5.05;;;3.60;;
19605;SDS011;9950;50.168;8.210;2022-10-16T04:57:27;3.65;;;3.22;;
19605;SDS011;9950;50.168;8.210;2022-10-16T04:59:54;3.95;;;3.03;;
19605;SDS011;9950;50.168;8.210;2022-10-16T05:02:22;4.85;;;3.10;;
19605;SDS011;9950;50.168;8.210;2022-10-16T05:04:49;5.90;;;3.60;;
19605;SDS011;9950;50.168;8.210;2022-10-16T05:07:16;3.65;;;3.35;;
19605;SDS011;9950;50.168;8.210;2022-10-16T05:09:43;5.32;;;3.38;;
19605;SDS011;9950;50.168;8.210;2022-10-16T05:12:11;4.72;;;3.10;;
19605;SDS011;9950;50.168;8.210;2022-10-16T05:14:39;4.82;;;3.45;;
19605;SDS011;9950;50.168;8.210;2022-10-16T05:17:06;4.85;;;3.20;;
19605;SDS011;9950;50.168;8.210;2022-10-16T05:19:33;4.55;;;3.33;;
19605;SDS011;9950;50.168;8.210;2022-10-16T05:22:00;5.85;;;3.65;;
19605;SDS011;9950;50.168;8.210;2022-10-16T05:24:27;4.82;;;3.75;;
19605;SDS011;9950;50.168;8.210;2022-10-16T05:26:54;5.25;;;3.78;;
19605;SDS011;9950;50.168;8.210;2022-10-16T05:29:23;10.75;;;4.80;;
19605;SDS011;9950;50.168;8.210;2022-10-16T05:31:51;4.68;;;3.78;;
19605;SDS011;9950;50.168;8.210;2022-10-16T05:34:20;5.90;;;3.88;;
19605;SDS011;9950;50.168;8.210;2022-10-16T05:36:47;7.18;;;4.18;;
19605;SDS011;9950;50.168;8.210;2022-10-16T05:39:15;5.43;;;4.20;;
19605;SDS011;9950;50.168;8.210;2022-10-16T05:41:42;5.47;;;4.20;;
19605;SDS011;9950;50.168;8.210;2022-10-16T05:44:09;4.82;;;4.32;;
19605;SDS011;9950;50.168;8.210;2022-10-16T05:46:38;6.68;;;4.20;;
19605;SDS011;9950;50.168;8.210;2022-10-16T05:49:05;5.88;;;4.28;;
19605;SDS011;9950;50.168;8.210;2022-10-16T05:51:32;5.90;;;4.47;;
19605;SDS011;9950;50.168;8.210;2022-10-16T05:53:59;5.72;;;4.70;;
19605;SDS011;9950;50.168;8.210;2022-10-16T05:56:27;7.28;;;5.03;;
19605;SDS011;9950;50.168;8.210;2022-10-16T05:58:54;6.38;;;4.55;;
19605;SDS011;9950;50.168;8.210;2022-10-16T06:01:21;7.32;;;4.80;;
19605;SDS011;9950;50.168;8.210;2022-10-16T06:03:50;7.82;;;5.25;;
19605;SDS011;9950;50.168;8.210;2022-10-16T06:06:21;7.47;;;5.45;;
19605;SDS011;9950;50.168;8.210;2022-10-16T06:08:49;8.48;;;4.95;;
19605;SDS011;9950;50.168;8.210;2022-10-16T06:11:17;10.20;;;6.70;;
19605;SDS011;9950;50.168;8.210;2022-10-16T06:13:45;8.40;;;5.40;;
19605;SDS011;9950;50.168;8.210;2022-10-16T06:16:15;7.53;;;5.45;;
19605;SDS011;9950;50.168;8.210;2022-10-16T06:18:42;7.55;;;5.65;;
19605;SDS011;9950;50.168;8.210;2022-10-16T06:21:11;5.72;;;5.07;;
19605;SDS011;9950;50.168;8.210;2022-10-16T06:23:39;10.25;;;6.35;;
19605;SDS011;9950;50.168;8.210;2022-10-16T06:26:06;9.27;;;6.40;;
19605;SDS011;9950;50.168;8.210;2022-10-16T06:28:34;10.80;;;6.43;;
19605;SDS011;9950;50.168;8.210;2022-10-16T06:31:02;8.40;;;6.18;;
19605;SDS011;9950;50.168;8.210;2022-10-16T06:33:29;8.55;;;6.38;;
19605;SDS011;9950;50.168;8.210;2022-10-16T06:35:59;9.77;;;6.53;;
19605;SDS011;9950;50.168;8.210;2022-10-16T06:38:29;8.98;;;6.50;;
19605;SDS011;9950;50.168;8.210;2022-10-16T06:40:56;7.50;;;6.15;;
19605;SDS011;9950;50.168;8.210;2022-10-16T06:43:23;7.95;;;5.80;;
19605;SDS011;9950;50.168;8.210;2022-10-16T06:45:51;9.38;;;5.45;;
19605;SDS011;9950;50.168;8.210;2022-10-16T06:48:19;12.07;;;5.93;;
19605;SDS011;9950;50.168;8.210;2022-10-16T06:50:54;10.20;;;5.95;;
19605;SDS011;9950;50.168;8.210;2022-10-16T06:53:21;10.73;;;5.70;;
19605;SDS011;9950;50.168;8.210;2022-10-16T06:55:50;7.10;;;5.25;;
19605;SDS011;9950;50.168;8.210;2022-10-16T06:58:17;7.20;;;5.50;;
19605;SDS011;9950;50.168;8.210;2022-10-16T07:00:44;8.13;;;6.32;;
19605;SDS011;9950;50.168;8.210;2022-10-16T07:03:11;10.30;;;5.93;;
19605;SDS011;9950;50.168;8.210;2022-10-16T07:05:39;8.07;;;5.88;;
19605;SDS011;9950;50.168;8.210;2022-10-16T07:08:06;8.18;;;5.78;;
19605;SDS011;9950;50.168;8.210;2022-10-16T07:10:33;7.75;;;6.43;;
19605;SDS011;9950;50.168;8.210;2022-10-16T07:13:02;8.05;;;5.95;;
19605;SDS011;9950;50.168;8.210;2022-10-16T07:15:30;6.60;;;5.35;;
19605;SDS011;9950;50.168;8.210;2022-10-16T07:17:57;10.73;;;6.25;;
19605;SDS011;9950;50.168;8.210;2022-10-16T07:20:24;6.65;;;5.35;;
19605;SDS011;9950;50.168;8.210;2022-10-16T07:22:52;7.07;;;5.88;;
19605;SDS011;9950;50.168;8.210;2022-10-16T07:25:19;7.65;;;5.70;;
19605;SDS011;9950;50.168;8.210;2022-10-16T07:27:46;9.52;;;5.82;;
19605;SDS011;9950;50.168;8.210;2022-10-16T07:30:15;10.45;;;6.40;;
19605;SDS011;9950;50.168;8.210;2022-10-16T07:32:42;8.18;;;6.15;;
19605;SDS011;9950;50.168;8.210;2022-10-16T07:35:09;7.22;;;5.70;;
19605;SDS011;9950;50.168;8.210;2022-10-16T07:37:36;7.80;;;5.85;;
19605;SDS011;9950;50.168;8.210;2022-10-16T07:40:04;9.13;;;6.05;;
19605;SDS011;9950;50.168;8.210;2022-10-16T07:42:31;8.82;;;6.45;;
19605;SDS011;9950;50.168;8.210;2022-10-16T07:44:58;8.85;;;6.13;;
19605;SDS011;9950;50.168;8.210;2022-10-16T07:47:27;8.80;;;6.22;;
19605;SDS011;9950;50.168;8.210;2022-10-16T07:49:54;8.40;;;6.05;;
19605;SDS011;9950;50.168;8.210;2022-10-16T07:52:21;8.82;;;6.45;;
19605;SDS011;9950;50.168;8.210;2022-10-16T07:54:50;10.25;;;6.03;;
19605;SDS011;9950;50.168;8.210;2022-10-16T07:57:17;7.28;;;5.97;;
19605;SDS011;9950;50.168;8.210;2022-10-16T07:59:45;7.93;;;5.50;;
19605;SDS011;9950;50.168;8.210;2022-10-16T08:02:12;10.55;;;6.05;;
19605;SDS011;9950;50.168;8.210;2022-10-16T08:04:40;13.27;;;6.75;;
19605;SDS011;9950;50.168;8.210;2022-10-16T08:07:08;9.35;;;5.60;;
19605;SDS011;9950;50.168;8.210;2022-10-16T08:09:35;8.40;;;5.60;;
19605;SDS011;9950;50.168;8.210;2022-10-16T08:12:02;7.80;;;5.88;;
19605;SDS011;9950;50.168;8.210;2022-10-16T08:14:30;9.73;;;5.90;;
19605;SDS011;9950;50.168;8.210;2022-10-16T08:16:57;7.75;;;5.93;;
19605;SDS011;9950;50.168;8.210;2022-10-16T08:19:24;8.57;;;5.80;;
19605;SDS011;9950;50.168;8.210;2022-10-16T08:21:53;6.57;;;5.60;;
19605;SDS011;9950;50.168;8.210;2022-10-16T08:24:20;9.88;;;6.38;;
19605;SDS011;9950;50.168;8.210;2022-10-16T08:26:47;7.32;;;5.65;;
19605;SDS011;9950;50.168;8.210;2022-10-16T08:29:14;6.07;;;5.43;;
19605;SDS011;9950;50.168;8.210;2022-10-16T08:31:41;6.70;;;5.78;;
19605;SDS011;9950;50.168;8.210;2022-10-16T08:34:09;8.18;;;5.32;;
19605;SDS011;9950;50.168;8.210;2022-10-16T08:36:36;7.90;;;5.45;;
19605;SDS011;9950;50.168;8.210;2022-10-16T08:39:04;10.13;;;5.90;;
19605;SDS011;9950;50.168;8.210;2022-10-16T08:41:36;8.07;;;6.80;;
19605;SDS011;9950;50.168;8.210;2022-10-16T08:44:19;10.63;;;7.55;;
19605;SDS011;9950;50.168;8.210;2022-10-16T08:46:51;9.73;;;6.40;;
19605;SDS011;9950;50.168;8.210;2022-10-16T08:49:21;9.48;;;6.70;;
19605;SDS011;9950;50.168;8.210;2022-10-16T08:51:49;11.88;;;7.05;;
19605;SDS011;9950;50.168;8.210;2022-10-16T08:54:22;8.82;;;7.05;;
19605;SDS011;9950;50.168;8.210;2022-10-16T08:56:53;9.82;;;6.50;;
19605;SDS011;9950;50.168;8.210;2022-10-16T08:59:21;12.43;;;6.78;;
19605;SDS011;9950;50.168;8.210;2022-10-16T09:01:49;9.15;;;6.80;;
19605;SDS011;9950;50.168;8.210;2022-10-16T09:04:26;7.82;;;6.28;;
19605;SDS011;9950;50.168;8.210;2022-10-16T09:07:01;8.07;;;5.85;;
19605;SDS011;9950;50.168;8.210;2022-10-16T09:09:34;10.05;;;6.13;;
19605;SDS011;9950;50.168;8.210;2022-10-16T09:12:04;9.13;;;6.38;;
19605;SDS011;9950;50.168;8.210;2022-10-16T09:14:38;9.43;;;6.30;;
19605;SDS011;9950;50.168;8.210;2022-10-16T09:17:10;8.13;;;5.38;;
19605;SDS011;9950;50.168;8.210;2022-10-16T09:19:44;8.77;;;6.00;;
19605;SDS011;9950;50.168;8.210;2022-10-16T09:22:12;9.60;;;6.15;;
19605;SDS011;9950;50.168;8.210;2022-10-16T09:24:42;6.68;;;5.35;;
19605;SDS011;9950;50.168;8.210;2022-10-16T09:27:10;6.13;;;4.85;;
19605;SDS011;9950;50.168;8.210;2022-10-16T09:29:38;8.88;;;5.00;;
19605;SDS011;9950;50.168;8.210;2022-10-16T09:32:09;6.15;;;4.70;;
19605;SDS011;9950;50.168;8.210;2022-10-16T09:34:37;6.30;;;4.20;;
19605;SDS011;9950;50.168;8.210;2022-10-16T09:37:08;5.47;;;3.55;;
19605;SDS011;9950;50.168;8.210;2022-10-16T09:39:45;4.22;;;3.47;;
19605;SDS011;9950;50.168;8.210;2022-10-16T09:42:14;5.72;;;3.17;;
19605;SDS011;9950;50.168;8.210;2022-10-16T09:44:41;3.67;;;2.70;;
19605;SDS011;9950;50.168;8.210;2022-10-16T09:47:12;3.47;;;2.60;;
19605;SDS011;9950;50.168;8.210;2022-10-16T09:49:50;3.45;;;2.45;;
19605;SDS011;9950;50.168;8.210;2022-10-16T09:52:18;4.43;;;2.38;;
19605;SDS011;9950;50.168;8.210;2022-10-16T09:54:51;2.97;;;2.58;;
19605;SDS011;9950;50.168;8.210;2022-10-16T09:57:18;2.40;;;2.20;;
19605;SDS011;9950;50.168;8.210;2022-10-16T09:59:47;3.88;;;2.00;;
19605;SDS011;9950;50.168;8.210;2022-10-16T10:02:15;2.50;;;1.98;;
19605;SDS011;9950;50.168;8.210;2022-10-16T10:04:44;2.20;;;2.00;;
19605;SDS011;9950;50.168;8.210;2022-10-16T10:07:18;6.90;;;3.08;;
19605;SDS011;9950;50.168;8.210;2022-10-16T10:09:47;2.83;;;2.35;;
19605;SDS011;9950;50.168;8.210;2022-10-16T10:12:18;3.17;;;2.03;;
19605;SDS011;9950;50.168;8.210;2022-10-16T10:14:46;2.40;;;2.20;;
19605;SDS011;9950;50.168;8.210;2022-10-16T10:17:15;2.47;;;2.28;;
19605;SDS011;9950;50.168;8.210;2022-10-16T10:19:46;3.17;;;2.30;;
19605;SDS011;9950;50.168;8.210;2022-10-16T10:22:17;15.48;;;3.00;;
19605;SDS011;9950;50.168;8.210;2022-10-16T10:24:54;4.70;;;2.75;;
19605;SDS011;9950;50.168;8.210;2022-10-16T10:27:23;3.97;;;2.53;;
19605;SDS011;9950;50.168;8.210;2022-10-16T10:29:53;3.58;;;2.90;;
19605;SDS011;9950;50.168;8.210;2022-10-16T10:32:25;3.15;;;2.75;;
19605;SDS011;9950;50.168;8.210;2022-10-16T10:34:59;3.00;;;2.70;;
19605;SDS011;9950;50.168;8.210;2022-10-16T10:37:33;3.15;;;2.55;;
19605;SDS011;9950;50.168;8.210;2022-10-16T10:40:07;2.80;;;2.35;;
19605;SDS011;9950;50.168;8.210;2022-10-16T10:42:38;3.78;;;2.50;;
19605;SDS011;9950;50.168;8.210;2022-10-16T10:48:02;3.28;;;2.10;;
19605;SDS011;9950;50.168;8.210;2022-10-16T10:50:33;3.83;;;2.42;;
19605;SDS011;9950;50.168;8.210;2022-10-16T10:53:04;3.13;;;2.15;;
19605;SDS011;9950;50.168;8.210;2022-10-16T10:55:37;4.95;;;2.10;;
19605;SDS011;9950;50.168;8.210;2022-10-16T10:58:22;2.20;;;1.92;;
19605;SDS011;9950;50.168;8.210;2022-10-16T11:00:53;2.38;;;1.95;;
19605;SDS011;9950;50.168;8.210;2022-10-16T11:03:27;2.95;;;1.85;;
19605;SDS011;9950;50.168;8.210;2022-10-16T11:06:00;5.93;;;2.17;;
19605;SDS011;9950;50.168;8.210;2022-10-16T11:08:31;2.90;;;1.80;;
19605;SDS011;9950;50.168;8.210;2022-10-16T11:11:01;3.35;;;2.20;;
19605;SDS011;9950;50.168;8.210;2022-10-16T11:13:34;3.88;;;2.28;;
19605;SDS011;9950;50.168;8.210;2022-10-16T11:16:14;2.10;;;1.90;;
19605;SDS011;9950;50.168;8.210;2022-10-16T11:18:45;3.17;;;1.88;;
19605;SDS011;9950;50.168;8.210;2022-10-16T11:21:15;3.80;;;1.60;;
19605;SDS011;9950;50.168;8.210;2022-10-16T11:23:45;2.70;;;1.55;;
19605;SDS011;9950;50.168;8.210;2022-10-16T11:26:18;5.55;;;1.60;;
19605;SDS011;9950;50.168;8.210;2022-10-16T11:28:48;2.20;;;1.60;;
19605;SDS011;9950;50.168;8.210;2022-10-16T11:31:17;3.85;;;1.90;;
19605;SDS011;9950;50.168;8.210;2022-10-16T11:33:45;2.85;;;1.80;;
19605;SDS011;9950;50.168;8.210;2022-10-16T11:36:15;3.83;;;1.60;;
19605;SDS011;9950;50.168;8.210;2022-10-16T11:38:47;2.17;;;1.88;;
19605;SDS011;9950;50.168;8.210;2022-10-16T11:41:18;5.10;;;3.05;;
19605;SDS011;9950;50.168;8.210;2022-10-16T11:43:51;5.75;;;4.10;;
19605;SDS011;9950;50.168;8.210;2022-10-16T11:46:20;4.95;;;4.45;;
19605;SDS011;9950;50.168;8.210;2022-10-16T11:48:49;5.82;;;4.40;;
19605;SDS011;9950;50.168;8.210;2022-10-16T11:51:20;6.20;;;4.55;;
19605;SDS011;9950;50.168;8.210;2022-10-16T11:53:51;4.57;;;4.18;;
19605;SDS011;9950;50.168;8.210;2022-10-16T11:56:20;7.43;;;5.20;;
19605;SDS011;9950;50.168;8.210;2022-10-16T11:58:52;6.78;;;5.05;;
19605;SDS011;9950;50.168;8.210;2022-10-16T12:01:24;6.90;;;5.05;;
19605;SDS011;9950;50.168;8.210;2022-10-16T12:03:56;5.30;;;4.32;;
19605;SDS011;9950;50.168;8.210;2022-10-16T12:06:29;5.88;;;4.13;;
19605;SDS011;9950;50.168;8.210;2022-10-16T12:08:58;6.63;;;4.20;;
19605;SDS011;9950;50.168;8.210;2022-10-16T12:11:33;4.47;;;4.05;;
19605;SDS011;9950;50.168;8.210;2022-10-16T12:14:07;5.07;;;3.33;;
19605;SDS011;9950;50.168;8.210;2022-10-16T12:16:51;5.68;;;3.63;;
19605;SDS011;9950;50.168;8.210;2022-10-16T12:19:19;5.10;;;3.65;;
19605;SDS011;9950;50.168;8.210;2022-10-16T12:21:47;6.63;;;3.97;;
19605;SDS011;9950;50.168;8.210;2022-10-16T12:24:28;5.18;;;3.40;;
19605;SDS011;9950;50.168;8.210;2022-10-16T12:26:56;6.45;;;3.35;;
19605;SDS011;9950;50.168;8.210;2022-10-16T12:29:28;3.60;;;3.10;;
19605;SDS011;9950;50.168;8.210;2022-10-16T12:32:00;3.17;;;2.85;;
19605;SDS011;9950;50.168;8.210;2022-10-16T12:34:28;4.88;;;2.90;;
19605;SDS011;9950;50.168;8.210;2022-10-16T12:36:56;5.00;;;3.00;;
19605;SDS011;9950;50.168;8.210;2022-10-16T12:39:33;3.70;;;2.78;;
19605;SDS011;9950;50.168;8.210;2022-10-16T12:42:03;3.35;;;2.55;;
19605;SDS011;9950;50.168;8.210;2022-10-16T12:44:35;2.40;;;2.20;;
19605;SDS011;9950;50.168;8.210;2022-10-16T12:47:02;2.72;;;2.10;;
19605;SDS011;9950;50.168;8.210;2022-10-16T12:49:32;4.75;;;2.00;;
19605;SDS011;9950;50.168;8.210;2022-10-16T12:52:02;4.82;;;2.00;;
19605;SDS011;9950;50.168;8.210;2022-10-16T12:54:31;2.10;;;1.90;;
19605;SDS011;9950;50.168;8.210;2022-10-16T12:57:04;3.13;;;2.00;;
19605;SDS011;9950;50.168;8.210;2022-10-16T12:59:38;2.92;;;2.08;;
19605;SDS011;9950;50.168;8.210;2022-10-16T13:02:20;3.65;;;2.40;;
19605;SDS011;9950;50.168;8.210;2022-10-16T13:04:53;3.13;;;2.30;;
19605;SDS011;9950;50.168;8.210;2022-10-16T13:07:31;2.50;;;1.90;;
19605;SDS011;9950;50.168;8.210;2022-10-16T13:10:02;2.03;;;1.80;;
19605;SDS011;9950;50.168;8.210;2022-10-16T13:12:38;2.05;;;1.83;;
19605;SDS011;9950;50.168;8.210;2022-10-16T13:15:14;2.53;;;1.70;;
19605;SDS011;9950;50.168;8.210;2022-10-16T13:17:45;2.15;;;1.85;;
19605;SDS011;9950;50.168;8.210;2022-10-16T13:20:17;2.20;;;2.00;;
19605;SDS011;9950;50.168;8.210;2022-10-16T13:22:49;1.80;;;1.52;;
19605;SDS011;9950;50.168;8.210;2022-10-16T13:25:22;1.60;;;1.50;;
19605;SDS011;9950;50.168;8.210;2022-10-16T13:27:52;5.32;;;1.83;;
19605;SDS011;9950;50.168;8.210;2022-10-16T13:30:23;2.83;;;1.52;;
19605;SDS011;9950;50.168;8.210;2022-10-16T13:32:54;3.78;;;1.60;;
19605;SDS011;9950;50.168;8.210;2022-10-16T13:35:24;4.03;;;1.65;;
19605;SDS011;9950;50.168;8.210;2022-10-16T13:38:02;2.10;;;1.65;;
19605;SDS011;9950;50.168;8.210;2022-10-16T13:40:29;2.83;;;1.70;;
19605;SDS011;9950;50.168;8.210;2022-10-16T13:42:59;5.35;;;1.80;;
19605;SDS011;9950;50.168;8.210;2022-10-16T13:45:28;2.33;;;2.00;;
19605;SDS011;9950;50.168;8.210;2022-10-16T13:48:02;2.17;;;1.45;;
19605;SDS011;9950;50.168;8.210;2022-10-16T13:50:29;2.00;;;1.75;;
19605;SDS011;9950;50.168;8.210;2022-10-16T13:53:03;3.67;;;1.50;;
19605;SDS011;9950;50.168;8.210;2022-10-16T13:55:30;4.53;;;1.55;;
19605;SDS011;9950;50.168;8.210;2022-10-16T13:58:04;3.05;;;1.58;;
19605;SDS011;9950;50.168;8.210;2022-10-16T14:00:33;2.45;;;1.50;;
19605;SDS011;9950;50.168;8.210;2022-10-16T14:03:01;3.50;;;1.70;;
19605;SDS011;9950;50.168;8.210;2022-10-16T14:05:29;3.70;;;2.10;;
19605;SDS011;9950;50.168;8.210;2022-10-16T14:07:56;2.72;;;1.90;;
19605;SDS011;9950;50.168;8.210;2022-10-16T14:10:25;3.53;;;1.80;;
19605;SDS011;9950;50.168;8.210;2022-10-16T14:12:55;2.72;;;1.92;;
19605;SDS011;9950;50.168;8.210;2022-10-16T14:15:22;3.08;;;2.10;;
19605;SDS011;9950;50.168;8.210;2022-10-16T14:17:51;1.75;;;1.60;;
19605;SDS011;9950;50.168;8.210;2022-10-16T14:20:20;2.17;;;1.73;;
19605;SDS011;9950;50.168;8.210;2022-10-16T14:22:57;1.95;;;1.55;;
19605;SDS011;9950;50.168;8.210;2022-10-16T14:25:26;3.30;;;1.65;;
19605;SDS011;9950;50.168;8.210;2022-10-16T14:27:58;2.67;;;1.70;;
19605;SDS011;9950;50.168;8.210;2022-10-16T14:30:26;2.67;;;1.92;;
19605;SDS011;9950;50.168;8.210;2022-10-16T14:32:56;2.03;;;1.80;;
19605;SDS011;9950;50.168;8.210;2022-10-16T14:35:24;2.22;;;1.55;;
19605;SDS011;9950;50.168;8.210;2022-10-16T14:37:52;2.22;;;2.03;;
19605;SDS011;9950;50.168;8.210;2022-10-16T14:40:20;3.03;;;1.70;;
19605;SDS011;9950;50.168;8.210;2022-10-16T14:42:50;1.80;;;1.63;;
19605;SDS011;9950;50.168;8.210;2022-10-16T14:45:18;3.97;;;1.88;;
19605;SDS011;9950;50.168;8.210;2022-10-16T14:47:47;3.40;;;1.73;;
19605;SDS011;9950;50.168;8.210;2022-10-16T14:50:17;3.85;;;1.95;;
19605;SDS011;9950;50.168;8.210;2022-10-16T14:52:44;4.97;;;2.10;;
19605;SDS011;9950;50.168;8.210;2022-10-16T14:55:12;4.13;;;2.20;;
19605;SDS011;9950;50.168;8.210;2022-10-16T14:57:39;3.30;;;2.70;;
19605;SDS011;9950;50.168;8.210;2022-10-16T15:00:10;2.70;;;2.40;;
19605;SDS011;9950;50.168;8.210;2022-10-16T15:02:40;3.40;;;2.67;;
19605;SDS011;9950;50.168;8.210;2022-10-16T15:05:11;6.38;;;2.85;;
19605;SDS011;9950;50.168;8.210;2022-10-16T15:07:40;3.88;;;2.55;;
19605;SDS011;9950;50.168;8.210;2022-10-16T15:10:08;4.07;;;2.80;;
19605;SDS011;9950;50.168;8.210;2022-10-16T15:12:35;4.70;;;2.78;;
19605;SDS011;9950;50.168;8.210;2022-10-16T15:15:08;3.58;;;3.13;;